createdAt,value
2018-10-17T00:01:15.816Z,23.20
2018-10-17T00:05:13.670Z,23.20
2018-10-17T00:09:11.336Z,23.20
2018-10-17T00:13:08.119Z,23.20
2018-10-17T00:17:04.945Z,23.20
2018-10-17T00:21:02.345Z,23.20
2018-10-17T00:24:59.146Z,23.20
2018-10-17T00:28:55.814Z,23.10
2018-10-17T00:32:52.399Z,23.10
2018-10-17T00:36:49.351Z,23.20
2018-10-17T00:40:46.034Z,23.20
2018-10-17T00:44:42.484Z,23.20
2018-10-17T00:48:39.227Z,23.20
2018-10-17T00:52:35.829Z,23.10
2018-10-17T00:56:32.466Z,23.10
2018-10-17T01:00:29.065Z,23.10
2018-10-17T01:04:25.619Z,23.10
2018-10-17T01:08:22.432Z,23.20
2018-10-17T01:12:19.292Z,23.10
2018-10-17T01:16:16.185Z,23.10
2018-10-17T01:20:12.897Z,23.10
2018-10-17T01:24:09.605Z,23.10
2018-10-17T01:28:06.236Z,23.10
2018-10-17T01:32:03.036Z,23.10
2018-10-17T01:36:00.904Z,23.10
2018-10-17T01:39:57.476Z,23.10
2018-10-17T01:43:54.226Z,23.10
2018-10-17T01:47:50.904Z,23.10
2018-10-17T01:51:47.756Z,23.10
2018-10-17T01:55:44.431Z,23.10
2018-10-17T01:59:41.191Z,23.10
2018-10-17T02:03:37.728Z,23.10
2018-10-17T02:07:34.305Z,23.10
2018-10-17T02:11:31.081Z,23.10
2018-10-17T02:15:27.629Z,23.10
2018-10-17T02:19:24.313Z,23.10
2018-10-17T02:23:20.621Z,23.10
2018-10-17T02:27:17.293Z,23.10
2018-10-17T02:31:14.822Z,23.10
2018-10-17T02:35:17.497Z,23.10
2018-10-17T02:39:14.491Z,23.10
2018-10-17T02:43:11.413Z,23.10
2018-10-17T02:47:07.941Z,23.10
2018-10-17T02:51:05.032Z,23.10
2018-10-17T02:55:01.681Z,23.10
2018-10-17T02:58:58.154Z,23.10
2018-10-17T03:02:55.035Z,23.10
2018-10-17T03:06:51.881Z,23.10
2018-10-17T03:10:48.697Z,23.10
2018-10-17T03:14:45.317Z,23.10
2018-10-17T03:18:42.070Z,23.10
2018-10-17T03:22:38.831Z,23.10
2018-10-17T03:26:35.695Z,23.10
2018-10-17T03:30:32.643Z,23.10
2018-10-17T03:34:29.845Z,23.10
2018-10-17T03:38:26.782Z,23.10
2018-10-17T03:42:23.122Z,23.10
2018-10-17T03:46:19.473Z,23.10
2018-10-17T03:50:17.390Z,23.10
2018-10-17T03:54:14.069Z,23.10
2018-10-17T03:58:10.985Z,23.10
2018-10-17T04:02:07.778Z,23.10
2018-10-17T04:06:05.680Z,23.10
2018-10-17T04:10:02.785Z,23.10
2018-10-17T04:13:59.693Z,23.10
2018-10-17T04:17:56.714Z,23.10
2018-10-17T04:21:54.148Z,23.10
2018-10-17T04:25:50.745Z,23.10
2018-10-17T04:29:47.453Z,23.10
2018-10-17T04:33:44.024Z,23.10
2018-10-17T04:37:42.432Z,23.10
2018-10-17T04:41:39.073Z,23.10
2018-10-17T04:45:35.710Z,23.10
2018-10-17T04:49:32.421Z,23.00
2018-10-17T04:53:30.263Z,23.10
2018-10-17T04:57:27.237Z,23.10
2018-10-17T05:01:24.560Z,23.10
2018-10-17T05:05:21.807Z,23.10
2018-10-17T05:09:18.479Z,23.10
2018-10-17T05:13:15.298Z,23.10
2018-10-17T05:17:11.918Z,23.10
2018-10-17T05:21:10.034Z,23.10
2018-10-17T05:25:08.373Z,23.10
2018-10-17T05:29:05.133Z,23.10
2018-10-17T05:33:01.727Z,23.10
2018-10-17T05:36:58.277Z,23.00
2018-10-17T05:40:55.134Z,23.00
2018-10-17T05:44:52.605Z,23.00
2018-10-17T05:48:50.030Z,23.00
2018-10-17T05:52:47.269Z,23.00
2018-10-17T05:56:44.052Z,23.00
2018-10-17T06:00:41.103Z,23.00
2018-10-17T06:04:37.853Z,23.00
2018-10-17T06:08:34.573Z,23.00
2018-10-17T06:12:31.271Z,23.00
2018-10-17T06:16:28.527Z,23.00
2018-10-17T06:20:25.587Z,23.00
2018-10-17T06:24:22.519Z,23.00
2018-10-17T06:28:19.451Z,23.00
2018-10-17T06:32:16.727Z,23.00
2018-10-17T06:36:15.266Z,23.00
2018-10-17T06:40:12.225Z,23.10
2018-10-17T06:44:11.887Z,23.10
2018-10-17T06:48:09.143Z,23.00
2018-10-17T06:52:08.062Z,23.10
2018-10-17T06:56:04.923Z,23.00
2018-10-17T07:00:02.638Z,23.00
2018-10-17T07:04:00.039Z,23.00
2018-10-17T07:07:56.700Z,23.10
2018-10-17T07:11:54.138Z,23.10
2018-10-17T07:15:51.122Z,23.10
2018-10-17T07:19:48.043Z,23.10
2018-10-17T07:23:46.096Z,23.10
2018-10-17T07:27:43.152Z,23.10
2018-10-17T07:31:40.010Z,23.10
2018-10-17T07:35:37.137Z,23.10
2018-10-17T07:39:35.073Z,23.10
2018-10-17T07:43:32.268Z,23.10
2018-10-17T07:47:29.194Z,23.10
2018-10-17T07:51:25.980Z,23.10
2018-10-17T07:55:23.544Z,23.10
2018-10-17T07:59:20.706Z,23.10
2018-10-17T08:03:17.998Z,23.10
2018-10-17T08:07:16.242Z,23.10
2018-10-17T08:11:18.542Z,23.10
2018-10-17T08:15:15.411Z,23.10
2018-10-17T08:19:12.343Z,23.10
2018-10-17T08:23:09.058Z,23.10
2018-10-17T08:27:08.711Z,23.10
2018-10-17T08:31:05.562Z,23.10
2018-10-17T08:35:03.066Z,23.10
2018-10-17T08:39:00.943Z,23.10
2018-10-17T08:42:58.154Z,23.10
2018-10-17T08:46:55.195Z,23.10
2018-10-17T08:50:52.394Z,23.10
2018-10-17T08:54:49.439Z,23.10
2018-10-17T08:58:46.642Z,23.10
2018-10-17T09:02:44.582Z,23.10
2018-10-17T09:06:41.300Z,23.10
2018-10-17T09:10:38.503Z,23.10
2018-10-17T09:14:35.991Z,23.20
2018-10-17T09:18:32.952Z,23.10
2018-10-17T09:22:30.147Z,23.20
2018-10-17T09:26:27.223Z,23.20
2018-10-17T09:30:24.115Z,23.10
2018-10-17T09:34:21.500Z,23.20
2018-10-17T09:38:18.068Z,23.20
2018-10-17T09:42:16.627Z,23.20
2018-10-17T09:46:13.522Z,23.20
2018-10-17T09:50:11.432Z,23.20
2018-10-17T09:54:09.862Z,23.20
2018-10-17T09:58:12.107Z,23.20
2018-10-17T10:02:11.313Z,23.20
2018-10-17T10:06:08.305Z,23.30
2018-10-17T10:10:05.711Z,23.30
2018-10-17T10:14:02.254Z,23.30
2018-10-17T10:18:00.764Z,23.30
2018-10-17T10:21:57.617Z,23.40
2018-10-17T10:25:54.463Z,23.40
2018-10-17T10:29:52.385Z,23.40
2018-10-17T10:33:49.148Z,23.40
2018-10-17T10:37:46.338Z,23.40
2018-10-17T10:41:43.086Z,23.40
2018-10-17T10:45:39.838Z,23.50
2018-10-17T10:49:36.772Z,23.50
2018-10-17T10:53:33.672Z,23.50
2018-10-17T10:57:30.317Z,23.50
2018-10-17T11:01:28.375Z,23.60
2018-10-17T11:05:25.635Z,23.60
2018-10-17T11:09:22.624Z,23.60
2018-10-17T11:13:19.490Z,23.60
2018-10-17T11:17:16.438Z,23.60
2018-10-17T11:21:13.640Z,23.60
2018-10-17T11:25:11.693Z,23.60
2018-10-17T11:29:08.315Z,23.60
2018-10-17T11:33:05.239Z,23.60
2018-10-17T11:37:02.446Z,23.60
2018-10-17T11:40:59.320Z,23.50
2018-10-17T11:44:59.868Z,23.50
2018-10-17T11:48:56.434Z,23.60
2018-10-17T11:52:53.296Z,23.50
2018-10-17T11:56:49.842Z,23.50
2018-10-17T12:00:47.651Z,23.50
2018-10-17T12:04:44.533Z,23.50
2018-10-17T12:08:41.330Z,23.50
2018-10-17T12:12:38.372Z,23.50
2018-10-17T12:16:35.190Z,23.50
2018-10-17T12:20:32.042Z,23.50
2018-10-17T12:24:28.886Z,23.60
2018-10-17T12:28:26.627Z,23.60
2018-10-17T12:32:23.348Z,23.60
2018-10-17T12:36:19.897Z,23.60
2018-10-17T12:40:17.728Z,23.50
2018-10-17T12:44:14.203Z,23.60
2018-10-17T12:48:11.434Z,23.60
2018-10-17T12:52:08.261Z,23.60
2018-10-17T12:56:06.221Z,23.60
2018-10-17T13:00:02.904Z,23.60
2018-10-17T13:03:59.919Z,23.70
2018-10-17T13:07:56.691Z,23.70
2018-10-17T13:11:53.383Z,23.80
2018-10-17T13:15:50.408Z,23.80
2018-10-17T13:19:47.304Z,23.80
2018-10-17T13:23:45.049Z,23.80
2018-10-17T13:27:42.377Z,23.80
2018-10-17T13:31:39.491Z,23.80
2018-10-17T13:35:36.274Z,23.80
2018-10-17T13:39:33.398Z,23.90
2018-10-17T13:43:30.581Z,23.90
2018-10-17T13:47:27.122Z,23.80
2018-10-17T13:51:23.858Z,23.80
2018-10-17T13:55:22.001Z,23.80
2018-10-17T13:59:18.742Z,23.80
2018-10-17T14:03:15.580Z,23.80
2018-10-17T14:07:13.300Z,23.80
2018-10-17T14:11:09.811Z,23.80
2018-10-17T14:15:06.766Z,23.70
2018-10-17T14:19:05.233Z,23.70
2018-10-17T14:23:02.101Z,23.70
2018-10-17T14:26:58.759Z,23.70
2018-10-17T14:30:57.100Z,23.70
2018-10-17T14:34:54.087Z,23.70
2018-10-17T14:38:50.902Z,23.70
2018-10-17T14:42:47.673Z,23.70
2018-10-17T14:46:44.847Z,23.70
2018-10-17T14:50:41.445Z,23.70
2018-10-17T14:54:38.452Z,23.60
2018-10-17T14:58:35.475Z,23.70
2018-10-17T15:02:33.692Z,23.70
2018-10-17T15:06:31.233Z,23.70
2018-10-17T15:10:39.764Z,23.70
2018-10-17T15:14:39.104Z,23.60
2018-10-17T15:18:35.753Z,23.60
2018-10-17T15:22:32.504Z,23.60
2018-10-17T15:26:32.009Z,23.60
2018-10-17T15:30:28.742Z,23.60
2018-10-17T15:34:26.177Z,23.60
2018-10-17T15:38:23.302Z,23.60
2018-10-17T15:42:31.311Z,23.60
2018-10-17T15:46:28.475Z,23.60
2018-10-17T15:56:52.108Z,23.60
2018-10-17T16:00:49.785Z,23.60
2018-10-17T16:04:47.045Z,23.60
2018-10-17T16:08:43.692Z,23.60
2018-10-17T16:12:40.583Z,23.60
2018-10-17T16:16:38.302Z,23.60
2018-10-17T16:20:35.293Z,23.50
2018-10-17T16:24:32.391Z,23.50
2018-10-17T16:28:29.215Z,23.50
2018-10-17T16:32:26.073Z,23.50
2018-10-17T16:36:22.817Z,23.50
2018-10-17T16:40:19.798Z,23.50
2018-10-17T16:44:16.514Z,23.40
2018-10-17T16:48:13.693Z,23.40
2018-10-17T16:52:11.012Z,23.40
2018-10-17T16:56:08.719Z,23.40
2018-10-17T17:00:06.545Z,23.40
2018-10-17T17:04:04.081Z,23.40
2018-10-17T17:08:00.843Z,23.40
2018-10-17T17:11:57.844Z,23.40
2018-10-17T17:15:54.583Z,23.40
2018-10-17T17:19:51.717Z,23.40
2018-10-17T17:23:49.402Z,23.40
2018-10-17T17:27:46.446Z,23.40
2018-10-17T17:31:43.221Z,23.40
2018-10-17T17:35:39.946Z,23.40
2018-10-17T17:39:36.956Z,23.40
2018-10-17T17:43:33.761Z,23.50
2018-10-17T17:47:31.072Z,23.40
2018-10-17T17:51:28.025Z,23.40
2018-10-17T17:55:24.745Z,23.50
2018-10-17T17:59:21.456Z,23.50
2018-10-17T18:03:18.268Z,23.60
2018-10-17T18:07:15.006Z,23.60
2018-10-17T18:11:21.606Z,23.60
2018-10-17T18:15:18.801Z,23.60
2018-10-17T18:19:15.556Z,23.60
2018-10-17T18:23:12.155Z,23.60
2018-10-17T18:27:08.846Z,23.70
2018-10-17T18:31:05.538Z,23.60
2018-10-17T18:35:02.770Z,23.70
2018-10-17T18:38:59.301Z,23.60
2018-10-17T18:42:56.037Z,23.60
2018-10-17T18:46:52.628Z,23.60
2018-10-17T18:50:49.455Z,23.60
2018-10-17T18:54:46.668Z,23.60
2018-10-17T18:58:43.668Z,23.60
2018-10-17T19:02:40.766Z,23.60
2018-10-17T19:06:39.106Z,23.70
2018-10-17T19:10:37.724Z,23.70
2018-10-17T19:14:34.384Z,23.70
2018-10-17T19:18:33.368Z,23.70
2018-10-17T19:22:39.388Z,23.70
2018-10-17T19:26:36.402Z,23.70
2018-10-17T19:30:34.157Z,23.80
2018-10-17T19:34:30.778Z,24.10
2018-10-17T19:38:29.425Z,24.60
2018-10-17T19:42:41.850Z,24.60
2018-10-17T19:46:55.237Z,24.40
2018-10-17T19:50:52.424Z,24.20
2018-10-17T19:54:50.622Z,24.20
2018-10-17T19:58:49.558Z,24.20
2018-10-17T20:02:49.845Z,24.20
2018-10-17T20:06:47.212Z,24.10
2018-10-17T20:10:44.272Z,24.10
2018-10-17T20:14:41.454Z,24.10
2018-10-17T20:22:40.067Z,24.10
2018-10-17T20:30:38.962Z,24.10
2018-10-17T20:34:36.147Z,24.10
2018-10-17T20:38:33.204Z,24.10
2018-10-17T20:42:30.010Z,24.00
2018-10-17T20:46:29.862Z,24.00
2018-10-17T20:50:27.426Z,23.90
2018-10-17T20:54:24.862Z,23.90
2018-10-17T20:58:22.258Z,23.90
2018-10-17T21:02:20.541Z,23.90
2018-10-17T21:06:17.761Z,23.90
2018-10-17T21:10:19.160Z,23.80
2018-10-17T21:14:16.271Z,23.80
2018-10-17T21:18:13.146Z,23.80
2018-10-17T21:22:10.141Z,23.80
2018-10-17T21:26:20.091Z,23.80
2018-10-17T21:30:19.551Z,23.80
2018-10-17T21:34:16.426Z,23.80
2018-10-17T21:38:13.363Z,23.80
2018-10-17T21:42:10.539Z,23.80
2018-10-17T21:46:08.002Z,23.80
2018-10-17T21:50:05.898Z,23.80
2018-10-17T21:54:04.149Z,23.80
2018-10-17T21:58:00.876Z,23.80
2018-10-17T22:01:57.779Z,23.80
2018-10-17T22:05:55.026Z,23.70
2018-10-17T22:09:52.024Z,23.70
2018-10-17T22:13:48.744Z,23.80
2018-10-17T22:17:45.986Z,23.80
2018-10-17T22:21:43.372Z,23.80
2018-10-17T22:25:40.038Z,23.80
2018-10-17T22:29:36.677Z,23.80
2018-10-17T22:33:33.450Z,23.80
2018-10-17T22:37:30.047Z,23.80
2018-10-17T22:41:27.083Z,23.80
2018-10-17T22:45:23.888Z,23.70
2018-10-17T22:49:21.025Z,23.80
2018-10-17T22:53:17.782Z,23.80
2018-10-17T22:57:14.501Z,23.70
2018-10-17T23:01:11.391Z,23.70
2018-10-17T23:05:08.171Z,23.70
2018-10-17T23:09:08.941Z,23.70
2018-10-17T23:13:05.770Z,23.70
2018-10-17T23:17:02.344Z,23.70
2018-10-17T23:20:59.101Z,23.60
2018-10-17T23:24:56.083Z,23.50
2018-10-17T23:28:53.129Z,23.40
2018-10-17T23:50:52.344Z,23.40
2018-10-17T23:54:48.900Z,23.30
2018-10-17T23:58:45.950Z,23.30
